createdAt,value
2023-04-13T00:00:13.209Z,2.17
2023-04-13T00:02:40.088Z,2.40
2023-04-13T00:05:10.119Z,2.45
2023-04-13T00:07:38.685Z,1.90
2023-04-13T00:10:09.662Z,1.88
2023-04-13T00:12:37.694Z,2.05
2023-04-13T00:15:05.764Z,2.00
2023-04-13T00:17:33.491Z,2.20
2023-04-13T00:20:00.472Z,2.13
2023-04-13T00:22:30.043Z,2.28
2023-04-13T00:24:57.697Z,2.00
2023-04-13T00:27:27.455Z,1.73
2023-04-13T00:29:56.276Z,2.08
2023-04-13T00:32:24.307Z,2.20
2023-04-13T00:34:52.420Z,1.88
2023-04-13T00:37:21.866Z,1.98
2023-04-13T00:39:48.334Z,1.90
2023-04-13T00:42:14.834Z,1.52
2023-04-13T00:44:42.067Z,1.58
2023-04-13T00:47:08.976Z,1.85
2023-04-13T00:49:36.259Z,1.50
2023-04-13T00:52:03.358Z,1.65
2023-04-13T00:54:30.403Z,1.63
2023-04-13T00:56:58.708Z,1.50
2023-04-13T00:59:29.448Z,1.40
2023-04-13T01:02:02.099Z,1.48
2023-04-13T01:04:30.578Z,1.40
2023-04-13T01:07:15.978Z,1.30
2023-04-13T01:09:52.419Z,1.30
2023-04-13T01:12:31.509Z,1.48
2023-04-13T01:15:05.843Z,1.42
2023-04-13T01:17:35.228Z,1.42
2023-04-13T01:20:11.998Z,1.23
2023-04-13T01:22:45.792Z,1.17
2023-04-13T01:25:17.641Z,1.15
2023-04-13T01:27:48.649Z,0.90
2023-04-13T01:30:21.972Z,1.10
2023-04-13T01:32:54.864Z,1.10
2023-04-13T01:35:22.837Z,1.15
2023-04-13T01:37:52.760Z,0.90
2023-04-13T01:40:21.070Z,0.85
2023-04-13T01:42:47.894Z,0.80
2023-04-13T01:45:46.133Z,1.00
2023-04-13T01:48:19.267Z,1.13
2023-04-13T01:50:56.258Z,1.10
2023-04-13T01:53:30.376Z,1.20
2023-04-13T01:55:57.215Z,0.70
2023-04-13T01:58:28.110Z,0.90
2023-04-13T02:00:55.797Z,1.00
2023-04-13T02:03:25.364Z,0.95
2023-04-13T02:05:52.292Z,0.98
2023-04-13T02:08:18.907Z,1.10
2023-04-13T02:10:46.248Z,0.80
2023-04-13T02:13:13.513Z,0.80
2023-04-13T02:15:41.431Z,0.90
2023-04-13T02:18:08.009Z,1.08
2023-04-13T02:20:42.709Z,0.90
2023-04-13T02:23:10.415Z,0.98
2023-04-13T02:25:37.492Z,1.15
2023-04-13T02:28:04.877Z,0.95
2023-04-13T02:30:31.435Z,1.00
2023-04-13T02:32:58.025Z,1.20
2023-04-13T02:35:25.738Z,1.08
2023-04-13T02:37:52.189Z,1.17
2023-04-13T02:40:19.460Z,1.10
2023-04-13T02:42:45.925Z,1.27
2023-04-13T02:45:13.452Z,1.83
2023-04-13T02:47:40.164Z,1.05
2023-04-13T02:50:07.440Z,1.10
2023-04-13T02:52:33.882Z,1.08
2023-04-13T02:55:01.156Z,1.30
2023-04-13T02:57:27.586Z,1.20
2023-04-13T02:59:54.179Z,1.10
2023-04-13T03:02:21.512Z,1.23
2023-04-13T03:04:48.855Z,1.10
2023-04-13T03:07:17.095Z,0.88
2023-04-13T03:09:47.447Z,1.08
2023-04-13T03:12:13.944Z,1.13
2023-04-13T03:14:40.391Z,1.15
2023-04-13T03:17:08.305Z,1.30
2023-04-13T03:19:35.936Z,1.15
2023-04-13T03:22:02.454Z,1.48
2023-04-13T03:24:29.083Z,1.10
2023-04-13T03:26:57.065Z,1.10
2023-04-13T03:29:26.648Z,1.00
2023-04-13T03:31:53.183Z,1.30
2023-04-13T03:34:19.628Z,0.82
2023-04-13T03:36:46.547Z,1.08
2023-04-13T03:39:13.066Z,0.85
2023-04-13T03:41:39.608Z,1.38
2023-04-13T03:44:07.818Z,1.30
2023-04-13T03:46:37.989Z,1.60
2023-04-13T03:49:08.511Z,1.23
2023-04-13T03:51:35.961Z,1.42
2023-04-13T03:54:03.207Z,1.50
2023-04-13T03:56:30.840Z,1.40
2023-04-13T03:58:57.418Z,1.17
2023-04-13T04:01:24.030Z,1.65
2023-04-13T04:03:50.917Z,1.35
2023-04-13T04:06:17.445Z,1.52
2023-04-13T04:08:45.405Z,1.60
2023-04-13T04:11:12.002Z,1.77
2023-04-13T04:13:38.443Z,1.48
2023-04-13T04:16:07.252Z,1.70
2023-04-13T04:18:33.800Z,1.92
2023-04-13T04:24:36.878Z,1.70
2023-04-13T04:27:41.528Z,1.48
2023-04-13T04:30:29.752Z,1.80
2023-04-13T04:34:00.045Z,1.80
2023-04-13T04:35:50.311Z,1.80
2023-04-13T04:38:38.847Z,1.88
2023-04-13T04:41:31.315Z,1.85
2023-04-13T04:47:58.467Z,1.88
2023-04-13T04:50:35.008Z,2.35
2023-04-13T04:53:23.441Z,2.53
2023-04-13T04:55:58.669Z,2.30
2023-04-13T04:58:25.376Z,2.60
2023-04-13T05:03:53.666Z,2.30
2023-04-13T05:09:04.489Z,2.67
2023-04-13T05:11:58.110Z,2.38
2023-04-13T05:14:24.918Z,2.42
2023-04-13T05:19:57.722Z,1.92
2023-04-13T05:22:30.088Z,2.35
2023-04-13T05:25:13.410Z,2.42
2023-04-13T05:37:50.326Z,2.45
2023-04-13T05:40:17.121Z,2.47
2023-04-13T05:43:23.990Z,2.47
2023-04-13T05:45:59.796Z,2.47
2023-04-13T05:48:34.577Z,2.50
2023-04-13T05:51:01.317Z,2.50
2023-04-13T05:54:32.512Z,2.40
2023-04-13T05:56:57.586Z,2.10
2023-04-13T05:59:44.960Z,2.65
2023-04-13T06:02:14.853Z,2.33
2023-04-13T06:04:49.484Z,2.30
2023-04-13T06:07:16.522Z,2.22
2023-04-13T06:12:33.654Z,2.33
2023-04-13T06:15:00.575Z,2.67
2023-04-13T06:17:27.656Z,2.47
2023-04-13T06:19:54.648Z,2.45
2023-04-13T06:22:21.239Z,2.10
2023-04-13T06:24:49.539Z,2.20
2023-04-13T06:27:38.024Z,2.25
2023-04-13T06:30:34.571Z,2.22
2023-04-13T06:35:52.236Z,2.20
2023-04-13T06:38:18.872Z,2.17
2023-04-13T06:40:45.825Z,2.20
2023-04-13T06:43:26.450Z,2.13
2023-04-13T06:46:00.746Z,2.08
2023-04-13T06:48:27.541Z,2.17
2023-04-13T06:50:57.015Z,2.22
2023-04-13T06:53:23.872Z,2.20
2023-04-13T06:55:51.172Z,2.22
2023-04-13T06:58:17.717Z,1.92
2023-04-13T07:00:44.340Z,1.90
2023-04-13T07:03:11.159Z,2.38
2023-04-13T07:05:38.975Z,2.33
2023-04-13T07:08:13.056Z,1.52
2023-04-13T07:10:41.077Z,1.92
2023-04-13T07:13:07.772Z,2.20
2023-04-13T07:15:37.414Z,2.67
2023-04-13T07:18:04.738Z,2.45
2023-04-13T07:20:31.467Z,2.42
2023-04-13T07:22:58.203Z,2.92
2023-04-13T07:25:30.813Z,2.80
2023-04-13T07:27:57.659Z,3.00
2023-04-13T07:30:24.224Z,3.08
2023-04-13T07:32:50.890Z,3.22
2023-04-13T07:35:17.422Z,3.50
2023-04-13T07:37:44.575Z,3.17
2023-04-13T07:40:34.476Z,3.00
2023-04-13T07:42:59.044Z,3.40
2023-04-13T07:45:25.676Z,3.78
2023-04-13T07:47:54.822Z,3.58
2023-04-13T07:50:21.429Z,3.25
2023-04-13T07:52:48.023Z,3.30
2023-04-13T07:55:14.877Z,3.42
2023-04-13T07:57:41.435Z,3.40
2023-04-13T08:00:10.786Z,3.60
2023-04-13T08:02:37.527Z,2.90
2023-04-13T08:05:05.139Z,3.40
2023-04-13T08:07:31.866Z,3.40
2023-04-13T08:09:58.516Z,3.28
2023-04-13T08:12:25.011Z,3.33
2023-04-13T08:14:51.701Z,3.17
2023-04-13T08:17:18.331Z,3.53
2023-04-13T08:19:45.236Z,3.13
2023-04-13T08:22:11.885Z,3.00
2023-04-13T08:24:38.807Z,2.80
2023-04-13T08:27:07.426Z,2.38
2023-04-13T08:29:34.193Z,2.65
2023-04-13T08:32:01.708Z,2.70
2023-04-13T08:34:28.357Z,2.70
2023-04-13T08:37:03.886Z,2.60
2023-04-13T08:39:30.413Z,2.55
2023-04-13T08:41:57.845Z,2.60
2023-04-13T08:44:24.889Z,2.40
2023-04-13T08:46:53.252Z,2.40
2023-04-13T08:52:08.976Z,2.88
2023-04-13T08:54:35.685Z,3.05
2023-04-13T08:57:15.091Z,3.10
2023-04-13T08:59:56.281Z,2.85
2023-04-13T09:02:36.758Z,2.65
2023-04-13T09:05:26.600Z,2.90
2023-04-13T09:07:57.029Z,3.40
2023-04-13T09:10:25.843Z,3.00
2023-04-13T09:15:51.922Z,2.85
2023-04-13T09:18:18.993Z,3.30
2023-04-13T09:20:59.376Z,3.50
2023-04-13T09:23:26.602Z,2.83
2023-04-13T09:26:04.972Z,3.47
2023-04-13T09:28:31.655Z,3.28
2023-04-13T09:31:05.626Z,3.92
2023-04-13T09:33:46.900Z,4.20
2023-04-13T09:36:15.166Z,3.20
2023-04-13T09:38:48.381Z,3.05
2023-04-13T09:41:14.943Z,3.38
2023-04-13T09:43:41.439Z,2.97
2023-04-13T09:46:14.541Z,3.22
2023-04-13T09:48:41.873Z,3.00
2023-04-13T09:51:09.737Z,3.10
2023-04-13T09:53:43.789Z,2.53
2023-04-13T09:56:10.376Z,2.63
2023-04-13T09:58:47.308Z,2.65
2023-04-13T10:01:17.319Z,2.60
2023-04-13T10:03:44.647Z,2.42
2023-04-13T10:08:46.565Z,2.35
2023-04-13T10:11:14.880Z,2.70
2023-04-13T10:13:48.312Z,3.22
2023-04-13T10:19:00.274Z,3.13
2023-04-13T10:21:43.461Z,2.92
2023-04-13T10:30:24.061Z,3.20
2023-04-13T10:44:29.134Z,3.35
2023-04-13T10:47:10.139Z,3.90
2023-04-13T10:50:27.725Z,3.80
2023-04-13T10:53:12.242Z,3.10
2023-04-13T10:58:24.195Z,3.60
2023-04-13T11:01:00.029Z,3.58
2023-04-13T11:03:29.771Z,3.13
2023-04-13T11:06:12.575Z,2.90
2023-04-13T11:09:02.574Z,3.35
2023-04-13T11:11:34.674Z,3.97
2023-04-13T11:14:01.326Z,3.55
2023-04-13T11:16:36.606Z,3.78
2023-04-13T11:19:07.692Z,3.67
2023-04-13T11:21:38.000Z,3.70
2023-04-13T11:24:06.712Z,3.55
2023-04-13T11:26:39.305Z,3.85
2023-04-13T11:29:17.409Z,3.45
2023-04-13T11:31:54.509Z,3.50
2023-04-13T11:34:29.761Z,4.63
2023-04-13T11:37:05.689Z,3.53
2023-04-13T11:39:40.889Z,2.72
2023-04-13T11:42:19.444Z,3.13
2023-04-13T11:49:55.917Z,2.13
2023-04-13T11:52:22.606Z,1.80
2023-04-13T11:54:50.926Z,1.85
2023-04-13T11:57:26.647Z,1.90
2023-04-13T11:59:53.417Z,2.03
2023-04-13T12:02:33.746Z,2.00
2023-04-13T12:05:01.603Z,2.05
2023-04-13T12:07:28.929Z,1.67
2023-04-13T12:09:59.053Z,2.00
2023-04-13T12:15:15.340Z,2.45
2023-04-13T12:17:58.034Z,2.80
2023-04-13T12:20:37.246Z,2.45
2023-04-13T12:23:12.387Z,3.53
2023-04-13T12:25:42.231Z,3.30
2023-04-13T12:28:08.740Z,2.80
2023-04-13T12:30:35.202Z,2.63
2023-04-13T12:33:01.696Z,2.53
2023-04-13T12:35:28.152Z,2.70
2023-04-13T12:37:54.601Z,2.70
2023-04-13T12:40:21.029Z,2.97
2023-04-13T12:42:48.986Z,2.03
2023-04-13T12:45:16.779Z,2.25
2023-04-13T12:47:46.429Z,2.17
2023-04-13T12:50:13.125Z,2.38
2023-04-13T12:52:42.779Z,2.33
2023-04-13T12:55:09.593Z,2.47
2023-04-13T12:57:36.050Z,2.10
2023-04-13T13:00:06.472Z,1.90
2023-04-13T13:02:36.028Z,1.70
2023-04-13T13:05:04.016Z,1.83
2023-04-13T13:07:30.983Z,1.80
2023-04-13T13:10:00.891Z,1.95
2023-04-13T13:12:30.015Z,1.60
2023-04-13T13:14:58.475Z,2.20
2023-04-13T13:17:25.154Z,1.90
2023-04-13T13:19:51.937Z,2.15
2023-04-13T13:22:18.349Z,1.90
2023-04-13T13:24:44.795Z,2.10
2023-04-13T13:27:50.776Z,1.73
2023-04-13T13:29:57.772Z,2.20
2023-04-13T13:32:29.419Z,2.08
2023-04-13T13:34:56.220Z,1.85
2023-04-13T13:37:22.827Z,1.80
2023-04-13T13:39:49.482Z,1.63
2023-04-13T13:42:16.114Z,1.58
2023-04-13T13:44:42.594Z,1.50
2023-04-13T13:47:09.319Z,1.30
2023-04-13T13:49:35.799Z,1.70
2023-04-13T13:52:02.298Z,1.52
2023-04-13T13:54:28.641Z,1.90
2023-04-13T13:56:55.076Z,1.50
2023-04-13T13:59:21.536Z,1.58
2023-04-13T14:01:48.719Z,1.60
2023-04-13T14:04:15.660Z,1.50
2023-04-13T14:06:42.074Z,1.67
2023-04-13T14:09:08.791Z,1.90
2023-04-13T14:11:36.081Z,1.80
2023-04-13T14:14:11.091Z,2.10
2023-04-13T14:16:45.038Z,1.50
2023-04-13T14:19:11.546Z,2.05
2023-04-13T14:21:38.025Z,1.58
2023-04-13T14:24:04.936Z,1.88
2023-04-13T14:26:31.436Z,1.90
2023-04-13T14:28:58.227Z,2.20
2023-04-13T14:31:27.861Z,2.17
2023-04-13T14:33:54.340Z,1.77
2023-04-13T14:36:21.180Z,1.92
2023-04-13T14:38:48.581Z,1.95
2023-04-13T14:41:15.037Z,2.10
2023-04-13T14:43:41.408Z,1.90
2023-04-13T14:46:08.828Z,2.50
2023-04-13T14:48:35.616Z,1.70
2023-04-13T14:51:02.091Z,1.58
2023-04-13T14:53:30.047Z,1.77
2023-04-13T14:55:57.305Z,2.00
2023-04-13T14:58:23.789Z,1.73
2023-04-13T15:00:50.199Z,1.45
2023-04-13T15:03:17.672Z,1.48
2023-04-13T15:05:49.744Z,1.77
2023-04-13T15:08:17.632Z,1.70
2023-04-13T15:10:44.322Z,1.52
2023-04-13T15:13:10.824Z,1.90
2023-04-13T15:15:38.217Z,1.42
2023-04-13T15:18:05.725Z,1.73
2023-04-13T15:20:32.334Z,1.73
2023-04-13T15:22:58.854Z,1.60
2023-04-13T15:25:26.368Z,1.88
2023-04-13T15:27:54.641Z,1.35
2023-04-13T15:30:26.064Z,1.50
2023-04-13T15:32:52.854Z,1.40
2023-04-13T15:35:19.310Z,1.80
2023-04-13T15:37:45.829Z,1.70
2023-04-13T15:40:12.555Z,1.50
2023-04-13T15:42:39.075Z,1.60
2023-04-13T15:45:07.065Z,1.42
2023-04-13T15:47:33.598Z,1.90
2023-04-13T15:50:00.476Z,1.83
2023-04-13T15:52:27.072Z,1.63
2023-04-13T15:54:54.200Z,2.00
2023-04-13T15:57:20.649Z,1.98
2023-04-13T15:59:47.222Z,1.70
2023-04-13T16:02:13.750Z,1.60
2023-04-13T16:04:40.505Z,1.50
2023-04-13T16:07:13.595Z,1.88
2023-04-13T16:09:43.734Z,2.08
2023-04-13T16:12:11.314Z,1.63
2023-04-13T16:14:41.642Z,2.03
2023-04-13T16:17:09.442Z,1.60
2023-04-13T16:19:35.879Z,1.67
2023-04-13T16:22:06.170Z,1.50
2023-04-13T16:24:42.083Z,1.60
2023-04-13T16:27:08.747Z,1.30
2023-04-13T16:29:35.513Z,1.30
2023-04-13T16:32:11.724Z,1.38
2023-04-13T16:34:38.348Z,1.73
2023-04-13T16:37:04.970Z,1.52
2023-04-13T16:39:32.161Z,1.65
2023-04-13T16:45:14.327Z,1.40
2023-04-13T16:47:42.097Z,1.58
2023-04-13T16:50:09.881Z,1.40
2023-04-13T16:52:38.645Z,1.35
2023-04-13T16:55:06.311Z,1.42
2023-04-13T16:57:33.381Z,1.17
2023-04-13T17:00:01.071Z,1.50
2023-04-13T17:02:31.565Z,1.73
2023-04-13T17:04:58.186Z,1.45
2023-04-13T17:07:26.766Z,1.35
2023-04-13T17:09:53.725Z,1.50
2023-04-13T17:12:22.424Z,1.77
2023-04-13T17:14:49.805Z,1.55
2023-04-13T17:17:16.472Z,1.58
2023-04-13T17:19:43.023Z,1.38
2023-04-13T17:22:09.707Z,1.58
2023-04-13T17:24:36.675Z,1.50
2023-04-13T17:27:03.147Z,1.50
2023-04-13T17:29:29.789Z,1.38
2023-04-13T17:31:56.710Z,1.70
2023-04-13T17:34:23.230Z,1.80
2023-04-13T17:36:49.836Z,1.83
2023-04-13T17:39:16.374Z,1.25
2023-04-13T17:41:43.266Z,1.98
2023-04-13T17:44:09.894Z,1.20
2023-04-13T17:46:36.631Z,1.63
2023-04-13T17:49:03.209Z,1.23
2023-04-13T17:51:30.837Z,1.60
2023-04-13T17:53:57.329Z,1.20
2023-04-13T17:56:23.894Z,1.35
2023-04-13T17:58:50.343Z,1.15
2023-04-13T18:01:16.946Z,1.30
2023-04-13T18:03:43.812Z,1.10
2023-04-13T18:06:10.726Z,1.35
2023-04-13T18:08:37.140Z,1.00
2023-04-13T18:11:03.802Z,1.23
2023-04-13T18:13:31.494Z,1.40
2023-04-13T18:15:58.454Z,0.85
2023-04-13T18:18:26.241Z,1.20
2023-04-13T18:20:52.986Z,1.40
2023-04-13T18:23:21.429Z,1.40
2023-04-13T18:25:49.231Z,1.20
2023-04-13T18:28:16.492Z,1.05
2023-04-13T18:30:44.033Z,1.08
2023-04-13T18:33:11.459Z,1.02
2023-04-13T18:35:45.839Z,1.30
2023-04-13T18:38:12.518Z,1.20
2023-04-13T18:40:40.320Z,1.02
2023-04-13T18:43:06.840Z,1.42
2023-04-13T18:45:33.793Z,1.73
2023-04-13T18:48:00.436Z,1.33
2023-04-13T18:50:27.070Z,1.63
2023-04-13T18:52:53.657Z,1.80
2023-04-13T18:55:20.288Z,1.23
2023-04-13T18:57:46.926Z,1.50
2023-04-13T19:00:13.979Z,1.48
2023-04-13T19:02:42.292Z,1.40
2023-04-13T19:05:10.921Z,1.58
2023-04-13T19:07:39.025Z,1.52
2023-04-13T19:10:06.689Z,1.52
2023-04-13T19:12:33.250Z,1.40
2023-04-13T19:14:59.802Z,1.63
2023-04-13T19:17:29.418Z,1.35
2023-04-13T19:19:56.836Z,1.45
2023-04-13T19:22:23.437Z,1.40
2023-04-13T19:24:49.937Z,1.80
2023-04-13T19:27:16.392Z,1.60
2023-04-13T19:29:42.848Z,1.20
2023-04-13T19:32:11.823Z,1.38
2023-04-13T19:34:38.445Z,1.50
2023-04-13T19:37:04.932Z,1.50
2023-04-13T19:39:31.465Z,1.27
2023-04-13T19:41:58.005Z,1.30
2023-04-13T19:44:24.516Z,1.60
2023-04-13T19:46:50.945Z,1.27
2023-04-13T19:49:17.553Z,1.05
2023-04-13T19:51:44.107Z,1.27
2023-04-13T19:54:10.666Z,1.35
2023-04-13T19:56:37.196Z,1.50
2023-04-13T19:59:05.125Z,1.50
2023-04-13T20:01:33.640Z,1.83
2023-04-13T20:04:02.096Z,1.42
2023-04-13T20:06:29.183Z,1.58
2023-04-13T20:09:07.301Z,1.63
2023-04-13T20:11:35.054Z,1.67
2023-04-13T20:14:02.160Z,1.52
2023-04-13T20:16:28.810Z,1.50
2023-04-13T20:18:55.348Z,1.20
2023-04-13T20:21:22.003Z,1.55
2023-04-13T20:23:48.751Z,1.40
2023-04-13T20:26:15.479Z,1.10
2023-04-13T20:28:41.976Z,1.60
2023-04-13T20:31:08.561Z,1.30
2023-04-13T20:33:35.264Z,1.50
2023-04-13T20:36:03.134Z,1.40
2023-04-13T20:38:30.007Z,1.42
2023-04-13T20:40:57.167Z,1.35
2023-04-13T20:43:24.201Z,1.50
2023-04-13T20:45:51.636Z,1.23
2023-04-13T20:50:48.048Z,1.10
2023-04-13T20:53:16.553Z,1.58
2023-04-13T20:55:43.164Z,1.13
2023-04-13T20:58:10.684Z,1.35
2023-04-13T21:00:38.364Z,1.73
2023-04-13T21:03:08.814Z,1.50
2023-04-13T21:05:35.952Z,1.23
2023-04-13T21:08:02.803Z,1.50
2023-04-13T21:10:29.383Z,1.25
2023-04-13T21:12:56.126Z,1.40
2023-04-13T21:15:22.619Z,1.30
2023-04-13T21:17:49.318Z,1.13
2023-04-13T21:20:15.965Z,1.25
2023-04-13T21:22:42.487Z,1.60
2023-04-13T21:25:09.289Z,1.05
2023-04-13T21:27:39.476Z,1.55
2023-04-13T21:30:06.754Z,1.42
2023-04-13T21:32:33.445Z,1.38
2023-04-13T21:35:00.543Z,1.17
2023-04-13T21:37:29.235Z,1.38
2023-04-13T21:39:56.260Z,1.35
2023-04-13T21:42:22.888Z,1.10
2023-04-13T21:44:49.550Z,1.13
2023-04-13T21:47:16.187Z,1.40
2023-04-13T21:49:43.212Z,1.35
2023-04-13T21:52:10.086Z,1.13
2023-04-13T21:54:36.630Z,1.05
2023-04-13T21:57:04.424Z,1.15
2023-04-13T21:59:30.811Z,1.90
2023-04-13T22:01:57.452Z,1.42
2023-04-13T22:04:24.164Z,1.40
2023-04-13T22:06:50.933Z,1.58
2023-04-13T22:09:17.494Z,1.27
2023-04-13T22:11:43.960Z,1.30
2023-04-13T22:14:10.744Z,1.02
2023-04-13T22:16:37.231Z,1.35
2023-04-13T22:19:03.748Z,1.13
2023-04-13T22:21:30.361Z,0.90
2023-04-13T22:26:27.024Z,1.30
2023-04-13T22:28:53.494Z,0.98
2023-04-13T22:31:20.057Z,1.17
2023-04-13T22:33:46.563Z,0.80
2023-04-13T22:36:19.481Z,0.95
2023-04-13T22:38:47.005Z,0.75
2023-04-13T22:41:13.484Z,1.02
2023-04-13T22:43:40.339Z,1.02
2023-04-13T22:46:07.829Z,1.10
2023-04-13T22:48:34.424Z,1.15
2023-04-13T22:51:01.396Z,0.95
2023-04-13T22:53:28.112Z,0.98
2023-04-13T22:55:54.621Z,1.15
2023-04-13T22:58:21.202Z,1.10
2023-04-13T23:00:47.702Z,1.10
2023-04-13T23:03:14.464Z,0.75
2023-04-13T23:05:41.076Z,0.70
2023-04-13T23:08:07.695Z,0.88
2023-04-13T23:10:34.238Z,0.70
2023-04-13T23:13:00.725Z,1.05
2023-04-13T23:15:27.191Z,1.10
2023-04-13T23:17:54.958Z,0.93
2023-04-13T23:20:22.638Z,0.77
2023-04-13T23:22:49.840Z,0.80
2023-04-13T23:25:16.409Z,1.05
2023-04-13T23:27:42.879Z,0.70
2023-04-13T23:30:09.885Z,1.20
2023-04-13T23:32:36.332Z,1.10
2023-04-13T23:35:03.044Z,0.90
2023-04-13T23:37:29.515Z,1.08
2023-04-13T23:39:56.286Z,1.00
2023-04-13T23:42:22.772Z,0.90
2023-04-13T23:44:49.199Z,0.88
2023-04-13T23:47:16.231Z,1.27
2023-04-13T23:49:43.282Z,1.10
2023-04-13T23:52:09.861Z,1.42
2023-04-13T23:54:36.680Z,1.15
2023-04-13T23:57:03.239Z,1.00
2023-04-13T23:59:29.895Z,0.80
